Hlavní strana
METAR-TAF:

METAR-TAF

Letiště :

Tiree, Skotsko

zeměpisná šířka: 56-30N, zeměpisná délka: 006-53W, výška: 12 m

Aktuální stav počasí

Zpráva byla vytvořena před 29 minutami, v 16:20 UTC
Západní vítr 7 kt
Teplota 10°C
Vlhkost vzduchu 93%
Tlak 1036 hPa
Viditelnost: 4800 m
Polojasno ve výšce 400 ft
Polojasno ve výšce 3200 ft
Oblačno až skoro zataženo ve výšce 4500 ft
kouřmo

METAR: EGPU 221620Z 27007KT 4800 BR SCT004 SCT032 BKN045 10/09 Q1036

Čas: 16:49 (16:49 UTC)

Předpověď počasí

Zpráva byla vytvořena před 2 hodinami a 47 minutami, v 14:02 UTC
Předpověď platná od 22 v 15 UTC do 22 v 19 UTC
Západní vítr 9 kt
Viditelnost 10 km a více
Polojasno ve výšce 500 ft
Oblačno až skoro zataženo ve výšce 1600 ft
Pravděpodobnost 30% :
Dočasný
od 22 v 15 UTC do 22 v 18 UTC
Viditelnost: 4000 m
Oblačno až skoro zataženo ve výšce 400 ft
mrholení, kouřmo

TAF: EGPU 221402Z 2215/2219 27009KT 9999 SCT005 BKN016 PROB30 TEMPO 2215/2218 4000 DZ BR BKN004

Stav a předpovědi počasí z více než 4 000 letišť (zprávy METAR a TAF).

Červené a žluté tečky na mapě představují dostupné meteorologické stanice.

Když kurzor umístíte na tečku, zobrazí se název stanice.

Pak kliknutím zobrazíte stav a předpověď počasí.

Chcete-li změnit mapu, kliknutím na zelené tlačítko se znaménkem +mapu přiblížíte, kliknutím na zelené tlačítko se znaménkem – mapu oddálíte a kliknutím na zelené šipky přejdete na sousední mapy.


METAR-TAF: